Time;durP1;ratioP1;P1;durP2;ratioP2;P2;SDS_P1;SDS_P2;PMS_P1;PMS_P2;Temp;Humidity;BMP_temperature;BMP_pressure;BME280_temperature;BME280_humidity;BME280_pressure;Samples;Min_cycle;Max_cycle;Signal;HPM_P1;HPM_P2
2022/05/24 00:01:36;;;;;;;10.27;6.40;;;14.30;99.90;;;;;;4778766;29;20058;-89
2022/05/24 00:04:01;;;;;;;8.63;6.50;;;14.30;99.90;;;;;;4795581;29;20047;-88
2022/05/24 00:06:30;;;;;;;9.53;6.50;;;14.20;99.90;;;;;;4778498;29;20090;-87
2022/05/24 00:08:56;;;;;;;11.53;7.23;;;14.20;99.90;;;;;;4789899;29;20055;-90
2022/05/24 00:11:22;;;;;;;11.63;7.70;;;14.20;99.90;;;;;;4760880;29;20054;-89
2022/05/24 00:13:48;;;;;;;10.77;7.30;;;14.20;99.90;;;;;;4777366;29;20047;-88
2022/05/24 00:16:14;;;;;;;9.83;7.63;;;14.20;99.90;;;;;;4776067;29;20055;-89
2022/05/24 00:18:40;;;;;;;10.43;7.37;;;14.20;99.90;;;;;;4779514;29;20427;-88
2022/05/24 00:21:06;;;;;;;11.87;8.00;;;14.20;99.90;;;;;;4759493;30;20136;-87
2022/05/24 00:23:33;;;;;;;9.40;6.97;;;14.10;99.90;;;;;;4758133;30;20142;-88
2022/05/24 00:26:07;;;;;;;11.47;7.33;;;14.20;99.90;;;;;;4774944;29;20070;-88
2022/05/24 00:28:34;;;;;;;9.73;7.00;;;14.10;99.90;;;;;;4790255;29;20441;-88
2022/05/24 00:31:01;;;;;;;8.33;7.37;;;14.10;99.90;;;;;;4795397;29;20043;-87
2022/05/24 00:33:27;;;;;;;9.40;7.20;;;14.10;99.90;;;;;;4776879;30;20074;-90
2022/05/24 00:35:54;;;;;;;10.73;7.10;;;14.10;99.90;;;;;;4762080;30;20105;-91
2022/05/24 00:38:39;;;;;;;10.77;7.27;;;14.00;99.90;;;;;;4792492;29;20044;-90
2022/05/24 00:41:22;;;;;;;8.13;6.97;;;14.00;99.90;;;;;;4776614;30;20043;-93
2022/05/24 00:44:00;;;;;;;9.57;7.00;;;14.00;99.90;;;;;;4793189;29;20051;-89
2022/05/24 00:46:29;;;;;;;9.63;6.83;;;14.00;99.90;;;;;;4776488;29;20074;-89
2022/05/24 00:49:09;;;;;;;11.03;6.87;;;13.90;99.90;;;;;;4791354;29;20654;-91
2022/05/24 00:51:39;;;;;;;9.17;6.63;;;14.00;99.90;;;;;;4777942;30;20070;-90
2022/05/24 00:54:05;;;;;;;11.97;7.30;;;13.90;99.90;;;;;;4790851;29;20505;-91
2022/05/24 00:56:49;;;;;;;9.20;6.37;;;13.90;99.90;;;;;;4777633;30;20043;-88
2022/05/24 00:59:49;;;;;;;12.10;6.07;;;13.90;99.90;;;;;;4792656;29;20189;-87
2022/05/24 01:02:14;;;;;;;9.70;6.20;;;13.80;99.90;;;;;;4779436;29;20055;-88
2022/05/24 01:04:40;;;;;;;6.83;5.73;;;13.80;99.90;;;;;;4780125;30;20047;-89
2022/05/24 01:07:06;;;;;;;9.03;6.50;;;13.80;99.90;;;;;;4777813;29;20088;-89
2022/05/24 01:09:50;;;;;;;13.00;6.73;;;13.80;99.90;;;;;;4764273;29;20055;-89
2022/05/24 01:12:45;;;;;;;9.20;6.03;;;13.80;99.90;;;;;;4790675;29;20063;-89
2022/05/24 01:15:12;;;;;;;9.20;5.60;;;13.80;99.90;;;;;;4729276;29;20129;-87
2022/05/24 01:17:39;;;;;;;9.27;5.67;;;13.70;99.90;;;;;;4779758;30;20054;-87
2022/05/24 01:20:06;;;;;;;8.77;5.27;;;13.70;99.90;;;;;;4760978;29;20058;-88
2022/05/24 01:22:47;;;;;;;8.27;5.23;;;13.70;99.90;;;;;;4777530;30;20082;-88
2022/05/24 01:25:35;;;;;;;5.67;5.13;;;13.70;99.90;;;;;;4777652;29;20077;-87
2022/05/24 01:28:05;;;;;;;6.37;4.93;;;13.70;99.90;;;;;;4776899;30;20039;-89
2022/05/24 01:30:31;;;;;;;5.30;4.30;;;13.60;99.90;;;;;;4775254;29;20054;-89
2022/05/24 01:38:25;;;;;;;6.53;5.50;;;13.60;99.90;;;;;;4787370;29;20047;-87
2022/05/24 01:40:54;;;;;;;6.63;5.57;;;13.50;99.90;;;;;;4762262;29;20065;-87
2022/05/24 01:43:22;;;;;;;8.20;6.40;;;13.50;99.90;;;;;;4786582;29;20071;-87
2022/05/24 01:46:02;;;;;;;11.37;6.60;;;13.50;99.90;;;;;;4776401;30;20059;-86
2022/05/24 01:48:42;;;;;;;11.60;7.60;;;13.50;99.90;;;;;;4792432;29;20059;-87
2022/05/24 01:51:12;;;;;;;11.70;8.33;;;13.50;99.90;;;;;;4773637;30;20054;-87
2022/05/24 01:53:42;;;;;;;12.70;9.10;;;13.50;99.90;;;;;;4763268;29;20044;-87
2022/05/24 01:56:15;;;;;;;15.43;10.13;;;13.40;99.90;;;;;;4776803;30;20574;-88
2022/05/24 01:58:44;;;;;;;16.50;10.90;;;13.40;99.90;;;;;;4775880;30;20047;-88
2022/05/24 02:01:24;;;;;;;16.13;10.83;;;13.40;99.90;;;;;;4776677;30;20047;-87
2022/05/24 02:03:49;;;;;;;14.20;11.57;;;13.40;99.90;;;;;;4773970;29;20055;-86
2022/05/24 02:06:19;;;;;;;18.93;11.93;;;13.40;99.90;;;;;;4761678;30;20070;-88
2022/05/24 02:08:44;;;;;;;15.83;11.93;;;13.40;99.90;;;;;;4777500;30;20062;-88
2022/05/24 02:11:10;;;;;;;19.50;13.10;;;13.40;99.90;;;;;;4774409;30;20060;-88
2022/05/24 02:13:41;;;;;;;14.97;12.20;;;13.40;99.90;;;;;;4759491;29;20079;-88
2022/05/24 02:16:10;;;;;;;19.27;13.87;;;13.40;99.90;;;;;;4775512;29;20059;-87
2022/05/24 02:18:39;;;;;;;18.33;13.27;;;13.40;99.90;;;;;;4781575;29;20058;-86
2022/05/24 02:21:05;;;;;;;18.67;13.87;;;13.40;99.90;;;;;;4776741;30;20059;-87
2022/05/24 02:23:43;;;;;;;26.20;14.73;;;13.40;99.90;;;;;;4761399;29;20110;-88
2022/05/24 02:26:11;;;;;;;20.93;14.07;;;13.40;99.90;;;;;;4794694;29;20055;-86
2022/05/24 02:28:36;;;;;;;19.33;14.00;;;13.40;99.90;;;;;;4776640;29;20137;-87
2022/05/24 02:31:05;;;;;;;20.53;14.27;;;13.40;99.90;;;;;;4762428;29;20131;-87
2022/05/24 02:33:34;;;;;;;19.97;14.70;;;13.40;99.90;;;;;;4791395;29;20431;-87
2022/05/24 02:36:00;;;;;;;17.80;14.13;;;13.40;99.90;;;;;;4792482;29;20063;-87
2022/05/24 02:38:26;;;;;;;20.87;14.57;;;13.40;99.90;;;;;;4798467;29;20491;-86
2022/05/24 02:43:37;;;;;;;21.00;14.03;;;13.40;99.90;;;;;;4790099;29;20484;-89
2022/05/24 02:46:04;;;;;;;25.00;14.97;;;13.30;99.90;;;;;;4760528;29;20042;-89
2022/05/24 02:48:30;;;;;;;24.30;17.00;;;13.30;99.90;;;;;;4774596;30;20050;-86
2022/05/24 02:50:56;;;;;;;23.17;16.33;;;13.40;99.90;;;;;;4760424;29;20077;-87
2022/05/24 02:53:22;;;;;;;25.50;17.83;;;13.40;99.90;;;;;;4789942;29;20937;-88
2022/05/24 02:55:47;;;;;;;25.00;16.80;;;13.40;99.90;;;;;;4747545;29;20155;-86
2022/05/24 02:58:13;;;;;;;26.23;17.50;;;13.40;99.90;;;;;;4774755;30;20463;-87
2022/05/24 03:00:41;;;;;;;30.33;19.17;;;13.40;99.90;;;;;;4793100;29;20047;-87
2022/05/24 03:03:07;;;;;;;28.47;18.53;;;13.40;99.90;;;;;;4790150;29;20047;-87
2022/05/24 03:05:33;;;;;;;31.27;19.90;;;13.40;99.90;;;;;;4759168;29;20054;-88
2022/05/24 03:10:43;;;;;;;30.43;22.13;;;13.40;99.90;;;;;;4788799;29;20062;-87
2022/05/24 03:15:54;;;;;;;40.07;23.27;;;13.50;99.90;;;;;;4775726;29;20063;-88
2022/05/24 03:18:21;;;;;;;38.30;24.60;;;13.50;99.90;;;;;;4759287;30;20104;-89
2022/05/24 03:20:47;;;;;;;37.37;23.67;;;13.60;99.90;;;;;;4775939;29;20047;-87
2022/05/24 03:23:15;;;;;;;40.17;25.33;;;13.50;99.90;;;;;;4793515;29;20130;-88
2022/05/24 03:25:41;;;;;;;39.00;25.10;;;13.60;99.90;;;;;;4778154;29;20108;-87
2022/05/24 03:28:08;;;;;;;39.20;24.70;;;13.60;99.90;;;;;;4790689;29;20050;-89
2022/05/24 03:30:42;;;;;;;42.00;25.53;;;13.60;99.90;;;;;;4778025;29;20043;-87
2022/05/24 03:33:08;;;;;;;43.87;26.27;;;13.60;99.90;;;;;;4788504;29;20046;-86
2022/05/24 03:35:34;;;;;;;40.50;28.23;;;13.60;99.90;;;;;;4779981;29;20054;-86
2022/05/24 03:37:59;;;;;;;45.43;27.13;;;13.70;99.90;;;;;;4779145;29;20050;-87
2022/05/24 03:40:25;;;;;;;44.27;28.17;;;13.70;99.90;;;;;;4777140;29;20050;-88
2022/05/24 03:42:52;;;;;;;46.70;27.87;;;13.70;99.90;;;;;;4800905;29;20054;-88
2022/05/24 03:45:18;;;;;;;43.27;26.80;;;13.70;99.90;;;;;;4776192;29;20949;-88
2022/05/24 03:47:44;;;;;;;43.73;28.43;;;13.70;99.90;;;;;;4778225;29;20043;-88
2022/05/24 03:50:10;;;;;;;45.43;28.50;;;13.80;99.90;;;;;;4794414;29;20154;-88
2022/05/24 03:52:36;;;;;;;38.83;26.53;;;13.80;99.90;;;;;;4791794;29;20089;-88
2022/05/24 03:55:03;;;;;;;43.67;26.80;;;13.80;99.90;;;;;;4778912;29;20432;-88
2022/05/24 04:00:16;;;;;;;41.83;27.83;;;13.80;99.90;;;;;;4782684;29;20047;-87
2022/05/24 04:02:41;;;;;;;39.47;26.50;;;13.80;99.90;;;;;;4792910;29;20488;-86
2022/05/24 04:05:08;;;;;;;38.40;25.83;;;13.90;99.90;;;;;;4777543;29;20142;-86
2022/05/24 04:07:35;;;;;;;36.80;26.20;;;13.90;99.90;;;;;;4775798;29;20458;-88
2022/05/24 04:10:02;;;;;;;37.10;24.67;;;13.90;99.90;;;;;;4790103;29;20061;-88
2022/05/24 04:12:27;;;;;;;38.97;24.83;;;13.90;99.90;;;;;;4793103;29;20055;-87
2022/05/24 04:14:53;;;;;;;36.77;23.63;;;13.90;99.90;;;;;;4779131;29;20050;-88
2022/05/24 04:17:19;;;;;;;36.50;24.90;;;13.90;99.90;;;;;;4778741;29;20050;-88
2022/05/24 04:19:44;;;;;;;37.70;24.50;;;14.00;99.90;;;;;;4794913;29;20114;-87
2022/05/24 04:22:10;;;;;;;36.63;24.93;;;14.00;99.90;;;;;;4748235;29;20086;-88
2022/05/24 04:24:36;;;;;;;32.70;23.03;;;14.00;99.90;;;;;;4790536;29;20058;-87
2022/05/24 04:27:05;;;;;;;33.23;22.90;;;14.00;99.90;;;;;;4762640;29;20060;-87
2022/05/24 04:29:31;;;;;;;30.50;22.60;;;14.00;99.90;;;;;;4805849;29;20570;-88
2022/05/24 04:31:56;;;;;;;34.20;23.07;;;14.00;99.90;;;;;;4790172;29;20074;-89
2022/05/24 04:34:22;;;;;;;31.93;22.57;;;14.00;99.90;;;;;;4795192;29;20055;-89
2022/05/24 04:36:47;;;;;;;34.00;23.37;;;14.00;99.90;;;;;;4775499;29;20046;-89
2022/05/24 04:39:15;;;;;;;35.40;22.80;;;14.00;99.90;;;;;;4794136;29;20509;-87
2022/05/24 04:44:25;;;;;;;34.37;23.13;;;14.10;99.90;;;;;;4792122;29;20931;-87
2022/05/24 04:47:09;;;;;;;35.90;21.47;;;14.10;99.90;;;;;;4792520;29;21830;-87
2022/05/24 04:49:41;;;;;;;34.43;22.73;;;14.10;99.90;;;;;;4762784;29;20092;-88
2022/05/24 04:52:08;;;;;;;35.42;21.92;;;14.10;99.90;;;;;;4775436;29;20047;-87
2022/05/24 04:54:34;;;;;;;33.03;22.27;;;14.10;99.90;;;;;;4792115;29;20465;-88
2022/05/24 04:57:00;;;;;;;37.90;23.10;;;14.10;99.90;;;;;;4788774;29;20069;-86
2022/05/24 04:59:26;;;;;;;31.10;20.90;;;14.10;99.90;;;;;;4791982;29;20035;-87
2022/05/24 05:01:52;;;;;;;36.50;23.00;;;14.20;99.90;;;;;;4790117;29;20108;-88
2022/05/24 05:04:23;;;;;;;34.00;22.83;;;14.20;99.90;;;;;;4777718;29;20039;-89
2022/05/24 05:06:49;;;;;;;36.83;22.73;;;14.20;99.90;;;;;;4792253;29;20135;-88
2022/05/24 05:09:16;;;;;;;34.50;22.87;;;14.20;99.90;;;;;;4778506;29;20050;-87
2022/05/24 05:11:42;;;;;;;37.77;24.03;;;14.20;99.90;;;;;;4803766;29;20047;-88
2022/05/24 05:14:09;;;;;;;36.27;24.00;;;14.20;99.90;;;;;;4799689;29;20047;-93
2022/05/24 05:16:36;;;;;;;36.80;23.67;;;14.10;99.90;;;;;;4780439;29;20043;-87
2022/05/24 05:19:03;;;;;;;39.63;25.13;;;14.10;99.90;;;;;;4780523;29;20079;-88
2022/05/24 05:21:31;;;;;;;45.03;25.10;;;14.10;99.90;;;;;;4809494;29;20061;-90
2022/05/24 05:23:57;;;;;;;41.33;25.50;;;14.10;99.90;;;;;;4822272;29;20062;-88
2022/05/24 05:26:23;;;;;;;40.37;26.13;;;14.10;99.90;;;;;;4794845;29;20093;-83
2022/05/24 05:28:49;;;;;;;39.53;25.23;;;14.10;99.90;;;;;;4793242;29;20063;-85
2022/05/24 05:31:21;;;;;;;37.43;25.30;;;14.10;99.90;;;;;;4794074;29;20054;-87
2022/05/24 05:33:47;;;;;;;41.77;26.10;;;14.10;99.90;;;;;;4793807;29;20126;-79
2022/05/24 05:36:14;;;;;;;42.37;25.37;;;14.10;99.90;;;;;;4800604;29;20619;-79
2022/05/24 05:38:47;;;;;;;41.80;24.67;;;14.10;99.90;;;;;;4794019;29;20047;-78
2022/05/24 05:41:28;;;;;;;39.60;24.43;;;14.10;99.90;;;;;;4795571;29;20422;-78
2022/05/24 05:43:55;;;;;;;38.83;24.97;;;14.10;99.90;;;;;;4778992;29;20055;-78
2022/05/24 05:46:21;;;;;;;39.60;24.33;;;14.10;99.90;;;;;;4759575;29;20070;-82
2022/05/24 05:48:46;;;;;;;38.57;24.57;;;14.10;99.90;;;;;;4769690;29;20062;-78
2022/05/24 05:51:15;;;;;;;37.97;23.70;;;14.10;99.90;;;;;;4797772;29;20062;-79
2022/05/24 05:53:41;;;;;;;34.67;22.37;;;14.10;99.90;;;;;;4788852;29;20047;-78
2022/05/24 05:56:16;;;;;;;36.47;21.27;;;14.10;99.90;;;;;;4792054;29;20106;-80
2022/05/24 05:58:41;;;;;;;36.23;20.80;;;14.10;99.90;;;;;;4789662;29;20066;-82
2022/05/24 06:01:29;;;;;;;33.47;20.23;;;14.10;99.90;;;;;;4761660;29;20059;-82
2022/05/24 06:03:56;;;;;;;32.47;19.90;;;14.20;99.90;;;;;;4791818;29;20039;-82
2022/05/24 06:06:25;;;;;;;29.57;19.87;;;14.20;99.90;;;;;;4774746;29;20519;-78
2022/05/24 06:08:52;;;;;;;29.93;19.37;;;14.20;99.90;;;;;;4791755;29;20051;-78
2022/05/24 06:11:17;;;;;;;32.47;19.87;;;14.20;99.90;;;;;;4774731;29;20137;-76
2022/05/24 06:13:43;;;;;;;31.93;19.50;;;14.20;99.90;;;;;;4776793;29;20143;-77
2022/05/24 06:16:10;;;;;;;32.07;19.23;;;14.20;99.90;;;;;;4792886;29;20176;-74
2022/05/24 06:18:37;;;;;;;30.33;20.33;;;14.30;99.90;;;;;;4808802;29;20067;-77
2022/05/24 06:21:03;;;;;;;28.63;18.50;;;14.30;99.90;;;;;;4800755;29;20073;-77
2022/05/24 06:23:29;;;;;;;30.63;18.53;;;14.30;99.90;;;;;;4790136;29;20070;-77
2022/05/24 06:25:54;;;;;;;30.43;18.13;;;14.30;99.90;;;;;;4777099;29;20080;-78
2022/05/24 06:28:20;;;;;;;29.43;18.43;;;14.20;99.90;;;;;;4759903;29;20051;-77
2022/05/24 06:30:46;;;;;;;30.07;19.00;;;14.20;99.90;;;;;;4777905;29;20055;-77
2022/05/24 06:33:12;;;;;;;27.30;17.77;;;14.20;99.90;;;;;;4776845;29;20047;-78
2022/05/24 06:35:39;;;;;;;30.23;18.27;;;14.10;99.90;;;;;;4777552;29;20110;-77
2022/05/24 06:38:04;;;;;;;28.73;17.07;;;14.10;99.90;;;;;;4793334;29;20042;-78
2022/05/24 06:40:30;;;;;;;29.47;17.50;;;14.10;99.90;;;;;;4780192;29;20061;-77
2022/05/24 06:42:56;;;;;;;22.77;15.70;;;14.10;99.90;;;;;;4792110;29;20042;-77
2022/05/24 06:45:22;;;;;;;33.30;17.27;;;14.10;99.90;;;;;;4791869;29;20076;-78
2022/05/24 06:47:48;;;;;;;26.17;17.57;;;14.00;99.90;;;;;;4791991;29;20077;-77
2022/05/24 06:50:15;;;;;;;27.43;15.93;;;14.00;99.90;;;;;;4791710;29;20061;-77
2022/05/24 06:52:41;;;;;;;26.97;17.87;;;14.00;99.90;;;;;;4776404;29;20058;-78
2022/05/24 06:55:08;;;;;;;27.60;17.47;;;14.00;99.90;;;;;;4793040;29;20076;-78
2022/05/24 06:57:34;;;;;;;27.37;17.83;;;14.10;99.90;;;;;;4777014;29;20051;-77
2022/05/24 07:02:45;;;;;;;23.67;17.17;;;14.10;99.90;;;;;;4776895;29;20055;-78
2022/05/24 07:05:19;;;;;;;29.17;17.13;;;14.10;99.90;;;;;;4792838;29;20118;-77
2022/05/24 07:07:45;;;;;;;28.87;17.73;;;14.10;99.90;;;;;;4790353;29;20050;-78
2022/05/24 07:10:15;;;;;;;28.00;17.17;;;14.10;99.90;;;;;;4776600;29;20061;-77
2022/05/24 07:12:42;;;;;;;21.57;15.23;;;14.10;99.90;;;;;;4778747;29;20138;-77
2022/05/24 07:15:08;;;;;;;21.50;16.53;;;14.10;99.90;;;;;;4777586;29;20046;-78
2022/05/24 07:17:34;;;;;;;26.43;15.97;;;14.10;99.90;;;;;;4777669;29;20055;-78
2022/05/24 07:20:00;;;;;;;27.47;15.83;;;14.10;99.90;;;;;;4776144;29;20046;-78
2022/05/24 07:22:26;;;;;;;25.93;16.43;;;14.10;99.90;;;;;;4804903;29;20158;-77
2022/05/24 07:24:52;;;;;;;22.27;15.63;;;14.10;99.90;;;;;;4793176;29;20086;-77
2022/05/24 07:27:20;;;;;;;26.63;16.77;;;14.10;99.90;;;;;;4776228;29;20047;-76
2022/05/24 07:29:46;;;;;;;22.33;15.83;;;14.00;99.90;;;;;;4792147;29;20047;-77
2022/05/24 07:32:12;;;;;;;23.50;15.83;;;14.00;99.90;;;;;;4791934;29;20131;-77
2022/05/24 07:34:38;;;;;;;23.00;15.40;;;14.00;99.90;;;;;;4766292;29;20051;-78
2022/05/24 07:37:06;;;;;;;23.03;14.77;;;14.00;99.90;;;;;;4775614;29;20038;-77
2022/05/24 07:39:33;;;;;;;20.90;14.87;;;14.00;99.90;;;;;;4793117;29;20058;-77
2022/05/24 07:47:20;;;;;;;23.80;15.20;;;14.00;99.90;;;;;;4789930;29;20067;-77
2022/05/24 07:49:46;;;;;;;22.50;14.77;;;14.00;99.90;;;;;;4777130;29;20431;-77
2022/05/24 07:52:12;;;;;;;22.80;15.60;;;14.10;99.90;;;;;;4793165;29;20067;-78
2022/05/24 07:54:37;;;;;;;23.93;15.23;;;14.10;99.90;;;;;;4763472;29;20047;-77
2022/05/24 07:57:08;;;;;;;22.50;14.03;;;14.10;99.90;;;;;;4790465;29;20066;-77
2022/05/24 07:59:35;;;;;;;21.67;14.77;;;14.10;99.90;;;;;;4791959;29;20057;-77
2022/05/24 08:02:01;;;;;;;22.97;14.47;;;14.20;99.90;;;;;;4773311;29;20122;-77
2022/05/24 08:04:26;;;;;;;22.93;15.23;;;14.20;99.90;;;;;;4778173;29;20568;-77
2022/05/24 08:06:54;;;;;;;26.03;15.03;;;14.20;99.90;;;;;;4775114;29;20092;-77
2022/05/24 08:09:20;;;;;;;24.17;15.50;;;14.20;99.90;;;;;;4761592;29;20055;-77
2022/05/24 08:11:45;;;;;;;22.43;14.33;;;14.20;99.90;;;;;;4777351;29;20049;-77
2022/05/24 08:14:11;;;;;;;21.80;14.90;;;14.20;99.90;;;;;;4749122;29;20050;-77
2022/05/24 08:16:37;;;;;;;29.67;14.90;;;14.20;99.90;;;;;;4778990;29;20075;-77
2022/05/24 08:19:04;;;;;;;23.77;15.83;;;14.20;99.90;;;;;;4774797;29;20057;-77
2022/05/24 08:21:31;;;;;;;20.60;15.20;;;14.30;99.90;;;;;;4776549;29;20074;-78
2022/05/24 08:23:57;;;;;;;22.77;14.67;;;14.40;99.90;;;;;;4790132;29;20473;-77
2022/05/24 08:26:23;;;;;;;22.50;14.30;;;14.50;99.90;;;;;;4789301;29;20111;-78
2022/05/24 08:28:50;;;;;;;22.23;14.88;;;14.50;99.90;;;;;;4776104;29;20527;-77
2022/05/24 08:31:17;;;;;;;18.20;14.00;;;14.60;99.90;;;;;;4776421;29;20054;-78
2022/05/24 08:33:44;;;;;;;21.83;13.95;;;14.60;99.90;;;;;;4809603;29;20085;-77
2022/05/24 08:36:10;;;;;;;19.50;12.90;;;14.80;99.90;;;;;;4776463;29;20615;-77
2022/05/24 08:38:37;;;;;;;17.23;13.67;;;14.90;99.90;;;;;;4791963;29;20047;-78
2022/05/24 08:41:06;;;;;;;18.75;13.57;;;14.90;99.90;;;;;;4800124;29;20459;-81
2022/05/24 08:43:51;;;;;;;18.15;12.07;;;14.90;99.90;;;;;;4775538;29;20050;-81
2022/05/24 08:49:13;;;;;;;20.90;13.13;;;14.80;99.90;;;;;;4795877;29;20063;-79
2022/05/24 08:52:02;;;;;;;16.38;12.05;;;14.80;99.90;;;;;;4801350;29;20063;-82
2022/05/24 08:54:38;;;;;;;14.48;10.88;;;14.90;99.90;;;;;;4795526;29;20054;-82
2022/05/24 08:57:11;;;;;;;15.45;10.60;;;15.20;99.90;;;;;;4799467;29;20065;-78
2022/05/24 09:00:00;;;;;;;14.35;10.32;;;15.40;99.90;;;;;;4795815;29;20099;-80
2022/05/24 09:02:26;;;;;;;16.45;8.93;;;15.40;99.90;;;;;;4794383;29;20131;-79
2022/05/24 09:04:52;;;;;;;18.42;9.65;;;15.60;99.90;;;;;;4800607;29;20555;-79
2022/05/24 09:07:55;;;;;;;14.88;9.60;;;15.70;99.90;;;;;;4774782;30;20491;-78
2022/05/24 09:10:27;;;;;;;16.83;9.80;;;15.80;99.90;;;;;;4769063;29;20066;-79
2022/05/24 09:12:53;;;;;;;12.85;9.23;;;16.20;99.90;;;;;;4784412;29;20070;-79
2022/05/24 09:15:30;;;;;;;13.18;7.88;;;16.20;99.90;;;;;;4789304;29;20070;-79
2022/05/24 09:18:21;;;;;;;10.00;8.40;;;16.10;99.90;;;;;;4804016;29;20046;-79
2022/05/24 09:20:47;;;;;;;8.27;7.28;;;16.10;99.90;;;;;;4795250;29;20268;-79
2022/05/24 09:23:26;;;;;;;9.10;6.75;;;16.00;99.90;;;;;;4801648;29;20123;-79
2022/05/24 09:25:58;;;;;;;7.88;5.93;;;16.20;99.90;;;;;;4773814;29;20601;-79
2022/05/24 09:28:42;;;;;;;;;;;16.30;99.90;;;;;;4783429;29;20058;-78
2022/05/24 09:31:10;;;;;;;11.75;5.50;;;16.10;99.90;;;;;;4796158;29;19925;-78
2022/05/24 09:33:41;;;;;;;8.95;6.10;;;16.00;99.90;;;;;;4787169;29;20074;-78
2022/05/24 09:36:07;;;;;;;11.20;6.43;;;15.90;99.90;;;;;;4781773;29;20042;-79
2022/05/24 09:38:39;;;;;;;12.25;7.15;;;15.90;99.90;;;;;;4796818;29;20750;-79
2022/05/24 09:41:16;;;;;;;7.25;6.32;;;16.10;99.90;;;;;;4794039;29;20277;-79
2022/05/24 09:43:42;;;;;;;9.88;6.25;;;16.00;99.90;;;;;;4778670;29;20066;-79
2022/05/24 09:46:11;;;;;;;6.60;5.90;;;15.80;99.90;;;;;;4771487;29;20058;-78
2022/05/24 09:48:58;;;;;;;7.78;6.47;;;15.80;99.90;;;;;;4801584;29;20077;-79
2022/05/24 09:51:40;;;;;;;9.57;6.43;;;15.80;99.90;;;;;;4779936;29;20054;-78
2022/05/24 09:54:15;;;;;;;10.52;6.28;;;15.90;99.90;;;;;;4802354;29;20050;-78
2022/05/24 09:56:41;;;;;;;9.13;5.57;;;15.90;99.90;;;;;;4781026;29;20050;-78
2022/05/24 09:59:23;;;;;;;7.25;5.53;;;15.80;99.90;;;;;;4775605;29;20046;-78
2022/05/24 10:01:50;;;;;;;6.90;5.22;;;15.80;99.90;;;;;;4784069;29;20387;-77
2022/05/24 10:04:26;;;;;;;6.40;4.85;;;15.70;99.90;;;;;;4768698;30;20075;-78
2022/05/24 10:06:57;;;;;;;8.50;5.22;;;15.70;99.90;;;;;;4803562;29;20050;-80
2022/05/24 10:09:48;;;;;;;8.13;5.70;;;15.70;99.90;;;;;;4778645;29;20042;-79
2022/05/24 10:12:41;;;;;;;6.82;5.72;;;15.80;99.90;;;;;;4776634;29;20108;-78
2022/05/24 10:15:14;;;;;;;8.95;5.88;;;16.00;99.90;;;;;;4789425;29;20047;-78
2022/05/24 10:17:59;;;;;;;6.72;5.63;;;16.40;99.90;;;;;;4810226;29;20082;-79
2022/05/24 10:20:34;;;;;;;8.50;5.95;;;16.90;99.90;;;;;;4797837;29;20102;-78
2022/05/24 10:23:12;;;;;;;6.88;5.72;;;16.90;99.90;;;;;;4784234;29;20067;-78
2022/05/24 10:25:50;;;;;;;11.75;5.40;;;17.20;99.90;;;;;;4788450;29;20059;-79
2022/05/24 10:28:37;;;;;;;6.93;5.53;;;17.40;99.90;;;;;;4787245;29;20470;-78
2022/05/24 10:31:12;;;;;;;6.68;5.45;;;17.20;99.90;;;;;;4791961;29;20091;-79
2022/05/24 10:40:14;;;;;;;6.45;3.55;;;17.40;99.90;;;;;;4787715;29;20059;-79
2022/05/24 10:42:52;;;;;;;4.93;2.55;;;17.50;99.90;;;;;;4800685;29;20511;-79
2022/05/24 10:45:23;;;;;;;2.60;2.40;;;17.50;99.90;;;;;;4782535;30;20051;-79
2022/05/24 10:47:53;;;;;;;3.90;2.60;;;17.40;99.90;;;;;;4781552;29;20050;-79
2022/05/24 10:50:34;;;;;;;4.20;2.80;;;17.40;99.90;;;;;;4774736;30;20520;-79
2022/05/24 10:53:18;;;;;;;4.03;2.28;;;17.30;99.90;;;;;;4775508;29;20063;-81
2022/05/24 10:55:57;;;;;;;3.08;0.80;;;17.10;99.90;;;;;;4789260;29;20059;-80
2022/05/24 10:58:24;;;;;;;2.85;1.15;;;16.60;99.90;;;;;;4795479;29;20432;-80
2022/05/24 11:00:56;;;;;;;2.33;1.10;;;15.90;99.90;;;;;;4803178;29;20059;-80
2022/05/24 11:03:30;;;;;;;1.83;1.02;;;15.40;99.90;;;;;;4800314;29;20055;-80
2022/05/24 11:06:03;;;;;;;1.27;1.00;;;15.00;99.90;;;;;;4771956;30;20417;-80
2022/05/24 11:08:46;;;;;;;1.10;1.00;;;14.70;99.90;;;;;;4794588;29;20053;-80
2022/05/24 11:11:42;;;;;;;4.00;1.13;;;14.30;99.90;;;;;;4778492;30;20342;-80
2022/05/24 11:14:11;;;;;;;3.22;1.17;;;14.10;99.90;;;;;;4795455;29;20125;-81
2022/05/24 11:16:46;;;;;;;1.73;1.00;;;14.00;99.90;;;;;;4781431;29;20051;-81
2022/05/24 11:19:21;;;;;;;0.77;0.75;;;14.00;99.90;;;;;;4796140;29;20062;-80
2022/05/24 11:22:14;;;;;;;1.23;0.85;;;13.80;99.90;;;;;;4797928;29;20046;-80
2022/05/24 11:24:52;;;;;;;2.92;1.50;;;13.80;99.90;;;;;;4749952;30;20063;-81
2022/05/24 11:27:42;;;;;;;1.60;1.50;;;13.80;99.90;;;;;;4796627;29;20151;-80
2022/05/24 11:30:16;;;;;;;3.17;1.97;;;13.70;99.90;;;;;;4777859;29;20411;-80
2022/05/24 11:32:50;;;;;;;2.70;2.07;;;13.60;99.90;;;;;;4779849;29;20245;-81
2022/05/24 11:35:19;;;;;;;2.30;2.10;;;13.60;99.90;;;;;;4797393;29;20419;-79
2022/05/24 11:37:50;;;;;;;4.53;2.30;;;13.80;99.90;;;;;;4788338;29;20074;-81
2022/05/24 11:40:54;;;;;;;4.13;2.50;;;13.80;99.90;;;;;;4802053;29;20055;-81
2022/05/24 11:43:35;;;;;;;2.37;2.17;;;14.00;99.90;;;;;;4759957;29;20051;-81
2022/05/24 11:46:03;;;;;;;2.83;2.50;;;14.00;99.90;;;;;;4791073;29;20109;-81
2022/05/24 11:48:59;;;;;;;3.47;2.87;;;14.10;99.90;;;;;;4798560;29;20062;-82
2022/05/24 11:51:31;;;;;;;4.47;2.67;;;14.10;99.90;;;;;;4787458;29;20505;-81
2022/05/24 11:53:56;;;;;;;3.65;3.20;;;14.20;99.90;;;;;;4780333;29;20546;-81
2022/05/24 11:56:24;;;;;;;3.50;2.60;;;14.20;99.90;;;;;;4782422;29;20059;-82
2022/05/24 11:58:56;;;;;;;3.13;2.80;;;14.20;99.90;;;;;;4760905;29;20047;-80
2022/05/24 12:01:39;;;;;;;3.67;2.63;;;14.20;99.90;;;;;;4783158;30;20054;-81
2022/05/24 12:10:07;;;;;;;3.53;2.10;;;14.50;99.90;;;;;;4790440;29;20145;-80
2022/05/24 12:12:36;;;;;;;2.10;1.80;;;14.90;99.90;;;;;;4792689;29;20073;-80
2022/05/24 12:15:32;;;;;;;5.00;2.08;;;15.10;99.90;;;;;;4799066;29;20067;-81
2022/05/24 12:17:58;;;;;;;2.45;2.25;;;15.50;99.90;;;;;;4793575;29;20074;-81
2022/05/24 12:20:33;;;;;;;3.58;2.05;;;15.80;99.90;;;;;;4781212;29;20058;-80
2022/05/24 12:23:07;;;;;;;7.53;2.22;;;16.20;99.90;;;;;;4766053;30;20080;-81
2022/05/24 12:25:58;;;;;;;5.15;2.08;;;16.30;99.90;;;;;;4782527;30;20065;-80
2022/05/24 12:28:34;;;;;;;3.13;1.80;;;16.50;99.90;;;;;;4794616;29;20153;-80
2022/05/24 12:31:02;;;;;;;2.70;1.75;;;16.70;99.90;;;;;;4799467;29;20151;-81
2022/05/24 12:33:30;;;;;;;3.15;1.90;;;16.90;99.90;;;;;;4793049;29;20051;-80
2022/05/24 12:36:11;;;;;;;2.25;1.90;;;17.00;99.90;;;;;;4788364;29;20651;-81
2022/05/24 12:38:38;;;;;;;4.05;1.90;;;17.00;99.90;;;;;;4780560;29;20118;-81
2022/05/24 12:41:52;;;;;;;3.85;2.08;;;16.80;99.90;;;;;;4762300;29;20101;-81
2022/05/24 12:44:22;;;;;;;2.90;1.65;;;16.60;99.90;;;;;;4722086;30;20678;-80
2022/05/24 12:46:52;;;;;;;2.38;1.50;;;16.50;99.90;;;;;;4728009;30;20059;-81
2022/05/24 12:49:25;;;;;;;2.70;1.50;;;16.60;99.90;;;;;;4737498;30;20059;-81
2022/05/24 12:52:20;;;;;;;1.83;1.40;;;16.70;99.90;;;;;;4785701;29;20089;-81
2022/05/24 12:54:53;;;;;;;3.35;1.50;;;16.60;99.90;;;;;;4793353;29;20058;-81
2022/05/24 12:57:20;;;;;;;2.75;1.80;;;16.40;99.90;;;;;;4801402;29;20043;-81
2022/05/24 12:59:55;;;;;;;3.22;1.23;;;16.20;99.90;;;;;;4800515;29;20402;-82
2022/05/24 13:02:37;;;;;;;2.97;0.98;;;15.80;99.90;;;;;;4772585;30;20054;-81
2022/05/24 13:05:21;;;;;;;0.70;0.70;;;15.50;99.90;;;;;;4783293;29;20078;-82
2022/05/24 13:07:58;;;;;;;3.13;1.10;;;15.10;99.90;;;;;;4773424;29;20498;-81
2022/05/24 13:10:38;;;;;;;3.33;1.00;;;14.80;99.90;;;;;;4779382;29;20063;-81
2022/05/24 13:13:16;;;;;;;2.08;0.80;;;14.60;99.90;;;;;;4797199;29;20063;-82
2022/05/24 13:15:44;;;;;;;1.90;0.90;;;14.60;99.90;;;;;;4783715;29;20043;-81
2022/05/24 13:18:18;;;;;;;2.15;0.95;;;14.80;99.90;;;;;;4797306;29;20118;-80
2022/05/24 13:20:49;;;;;;;3.78;0.95;;;14.90;99.90;;;;;;4776694;29;20066;-81
2022/05/24 13:23:15;;;;;;;1.58;1.13;;;15.00;99.90;;;;;;4798931;29;20081;-82
2022/05/24 13:25:55;;;;;;;1.35;1.20;;;15.00;99.90;;;;;;4787722;29;20055;-81
2022/05/24 13:28:48;;;;;;;2.13;1.30;;;14.90;99.90;;;;;;4788020;29;20967;-81
2022/05/24 13:34:11;;;;;;;4.65;1.35;;;14.90;99.90;;;;;;4800293;29;20051;-82
2022/05/24 13:37:01;;;;;;;2.28;1.20;;;15.00;99.90;;;;;;4783419;29;20062;-82
2022/05/24 13:39:53;;;;;;;2.08;1.40;;;15.20;99.90;;;;;;4775854;29;20107;-82
2022/05/24 13:42:28;;;;;;;1.60;1.30;;;15.30;99.90;;;;;;4781583;30;20176;-82